Shook, Missouri
Current Conditions -  °F | °C
As of 11:53 AM on Tuesday 21 Oct 2014 (Local Time) from KCGI Reporting Station
Clear Clear  
Wind Chill: 69°   Ceiling: Unl
Heat Index: 69°   Visibility: 10mi
Dew Point: 47°   Wind: 12mph
Humidity: 45%   Direction: 330°NNW
Pressure: 30.1"   Gusts: NA
Location:  37.04°N, 90.31°W
Report Text: KCGI 211653Z 33010KT 10SM CLR 21/08 A3010 RMK AO2 SLP192 T02060083
Loading
Personal Weather Stations






























Interactive Weather Map
Tropical Storm Tracking
New forecast layout! Learn more

10-Day Weather Forecast

Advertisements
Track Severe Weather on mobile